Time;durP1;ratioP1;P1;durP2;ratioP2;P2;SDS_P1;SDS_P2;PMS_P1;PMS_P2;Temp;Humidity;BMP_temperature;BMP_pressure;BME280_temperature;BME280_humidity;BME280_pressure;Samples;Min_cycle;Max_cycle;Signal;HPM_P1;HPM_P2
2022/04/02 00:09:10;;;;;;;0.30;0.20;;;9.40;55.90;;;;;;20664104;28;20389;-78
2022/04/02 00:19:11;;;;;;;0.90;0.30;;;9.40;56.00;;;;;;20630615;28;20049;-77
2022/04/02 00:29:12;;;;;;;0.90;0.40;;;9.40;56.00;;;;;;20645221;28;20042;-77
2022/04/02 00:39:12;;;;;;;3.45;0.57;;;9.50;56.10;;;;;;20662023;28;20126;-80
2022/04/02 00:49:13;;;;;;;0.63;0.20;;;9.50;56.00;;;;;;20644708;28;20030;-79
2022/04/02 00:59:15;;;;;;;0.30;0.25;;;9.50;55.90;;;;;;20644321;28;20297;-78
2022/04/02 01:09:15;;;;;;;1.30;0.50;;;9.40;55.90;;;;;;20644924;28;20046;-79
2022/04/02 01:19:20;;;;;;;0.68;0.40;;;9.40;55.90;;;;;;20644136;28;20052;-77
2022/04/02 01:29:22;;;;;;;0.70;0.38;;;9.40;56.00;;;;;;20642672;28;20046;-78
2022/04/02 01:39:30;;;;;;;0.57;0.30;;;9.40;56.00;;;;;;20642982;28;20027;-78
2022/04/02 01:49:30;;;;;;;0.90;0.30;;;9.40;56.10;;;;;;20674556;28;20504;-78
2022/04/02 01:59:35;;;;;;;0.55;0.50;;;9.40;56.10;;;;;;20657970;28;20370;-78
2022/04/02 02:09:36;;;;;;;1.10;0.35;;;9.40;56.10;;;;;;20673780;28;20038;-78
2022/04/02 02:19:57;;;;;;;0.70;0.40;;;9.30;56.10;;;;;;20939535;23;20391;-77
2022/04/02 02:29:57;;;;;;;1.05;0.43;;;9.30;56.00;;;;;;20517592;28;20126;-77
2022/04/02 02:39:58;;;;;;;0.33;0.20;;;9.30;56.00;;;;;;20510698;29;20430;-78
2022/04/02 02:50:00;;;;;;;0.28;0.22;;;9.30;56.10;;;;;;20478437;29;20285;-78
2022/04/02 03:00:11;;;;;;;1.42;0.50;;;9.30;56.10;;;;;;20493926;28;20434;-79
2022/04/02 03:10:17;;;;;;;1.38;0.60;;;9.30;56.10;;;;;;20494077;29;20038;-79
2022/04/02 03:20:20;;;;;;;0.30;0.30;;;9.30;56.10;;;;;;20494018;28;20102;-77
2022/04/02 03:30:22;;;;;;;0.77;0.40;;;9.20;56.10;;;;;;20491699;29;20134;-77
2022/04/02 03:40:25;;;;;;;1.23;0.47;;;9.30;56.10;;;;;;20491542;29;20047;-78
2022/04/02 03:50:27;;;;;;;1.00;0.63;;;9.20;56.00;;;;;;20506929;28;20041;-77
2022/04/02 04:00:31;;;;;;;0.30;0.30;;;9.20;56.00;;;;;;20489120;29;20039;-78
2022/04/02 04:10:41;;;;;;;0.30;0.20;;;9.20;56.00;;;;;;20504296;28;20035;-78
2022/04/02 04:20:42;;;;;;;1.95;0.50;;;9.20;56.00;;;;;;20487949;28;20042;-79
2022/04/02 04:30:49;;;;;;;0.50;0.40;;;9.20;56.00;;;;;;20502282;29;20042;-77
2022/04/02 04:40:50;;;;;;;0.65;0.20;;;9.20;55.90;;;;;;20486146;29;20039;-77
2022/04/02 04:50:54;;;;;;;0.73;0.40;;;9.20;56.00;;;;;;20485144;29;20379;-78
2022/04/02 05:00:57;;;;;;;1.08;0.40;;;9.20;55.90;;;;;;20484645;29;20051;-77
2022/04/02 05:10:59;;;;;;;1.02;0.52;;;9.20;55.90;;;;;;20500299;28;20401;-78
2022/04/02 05:21:06;;;;;;;1.23;0.52;;;9.20;55.90;;;;;;20484609;28;20127;-77
2022/04/02 05:31:08;;;;;;;1.83;1.73;;;9.20;55.80;;;;;;20500672;29;20190;-78
2022/04/02 05:41:09;;;;;;;0.80;0.40;;;9.20;55.80;;;;;;20483799;29;20122;-78
2022/04/02 05:51:09;;;;;;;1.20;0.30;;;9.20;55.80;;;;;;20468048;29;20054;-78
2022/04/02 06:01:10;;;;;;;1.65;0.50;;;9.20;55.80;;;;;;20498368;29;20058;-78
2022/04/02 06:11:11;;;;;;;0.30;0.28;;;9.20;55.80;;;;;;20482285;29;20353;-78
2022/04/02 06:21:11;;;;;;;0.93;0.50;;;9.20;55.80;;;;;;20481110;28;20512;-77
2022/04/02 06:31:12;;;;;;;0.40;0.30;;;9.10;55.80;;;;;;20487027;28;20114;-77
2022/04/02 06:41:16;;;;;;;1.15;0.52;;;9.10;55.80;;;;;;20495165;29;20031;-77
2022/04/02 06:51:17;;;;;;;0.70;0.40;;;9.10;55.80;;;;;;20494846;29;20035;-76
2022/04/02 07:01:18;;;;;;;4.45;0.60;;;9.10;55.80;;;;;;20492254;29;20046;-74
2022/04/02 07:11:18;;;;;;;0.60;0.30;;;9.20;56.00;;;;;;20508487;28;20042;-76
2022/04/02 07:21:20;;;;;;;2.20;0.50;;;9.10;55.90;;;;;;20510998;29;20067;-74
2022/04/02 07:31:21;;;;;;;2.38;0.70;;;9.20;56.00;;;;;;20492342;29;20409;-77
2022/04/02 07:41:53;;;;;;;2.15;0.30;;;9.10;56.00;;;;;;20511189;28;20118;-75
2022/04/02 07:51:54;;;;;;;0.80;0.47;;;9.10;56.00;;;;;;20475996;29;20035;-73
2022/04/02 08:01:55;;;;;;;0.50;0.40;;;9.10;56.00;;;;;;20508183;29;20035;-76
2022/04/02 08:11:56;;;;;;;1.02;0.40;;;9.10;56.10;;;;;;20492493;29;20041;-75
2022/04/02 08:21:57;;;;;;;0.57;0.52;;;9.10;56.10;;;;;;20558510;28;20117;-78
2022/04/02 08:32:21;;;;;;;0.80;0.55;;;9.10;56.10;;;;;;20525653;28;20043;-71
2022/04/02 08:42:46;;;;;;;1.13;0.30;;;9.10;56.10;;;;;;20502439;28;20073;-72
2022/04/02 08:52:51;;;;;;;0.35;0.25;;;9.10;56.10;;;;;;20538533;28;20557;-72
2022/04/02 09:03:19;;;;;;;3.88;0.73;;;9.10;56.10;;;;;;20493807;28;20049;-72
2022/04/02 09:13:56;;;;;;;3.38;1.00;;;9.00;55.20;;;;;;20495522;28;20085;-75
2022/04/02 09:24:05;;;;;;;4.97;0.75;;;9.00;54.60;;;;;;20561133;28;20035;-79
2022/04/02 09:34:35;;;;;;;4.60;1.00;;;9.00;54.10;;;;;;20560648;28;20027;-77
2022/04/02 09:45:03;;;;;;;6.38;1.33;;;9.00;53.90;;;;;;20580484;28;20050;-78
2022/04/02 09:55:14;;;;;;;7.70;0.90;;;9.00;53.50;;;;;;20489245;28;20063;-74
2022/04/02 10:05:15;;;;;;;2.05;1.27;;;9.00;53.30;;;;;;20535278;28;20050;-79
2022/04/02 10:15:16;;;;;;;1.23;0.90;;;9.00;53.00;;;;;;20590073;28;20023;-79
2022/04/02 10:25:18;;;;;;;3.50;0.70;;;9.00;53.30;;;;;;20563850;28;20541;-77
2022/04/02 10:35:20;;;;;;;1.45;0.60;;;9.00;53.60;;;;;;20575873;28;20596;-78
2022/04/02 10:45:21;;;;;;;3.55;0.55;;;9.10;53.80;;;;;;20574937;28;20039;-79
2022/04/02 10:55:23;;;;;;;2.22;0.65;;;9.10;54.00;;;;;;20604820;28;20038;-80
2022/04/02 11:05:25;;;;;;;1.55;0.80;;;9.10;54.00;;;;;;20558372;28;20740;-80
2022/04/02 11:15:27;;;;;;;1.15;0.68;;;9.10;54.00;;;;;;20490426;28;20397;-82
2022/04/02 11:25:31;;;;;;;3.15;0.63;;;9.10;54.10;;;;;;20508506;28;20039;-83
2022/04/02 11:35:38;;;;;;;1.52;0.65;;;9.10;54.20;;;;;;20507717;28;20035;-82
2022/04/02 11:45:39;;;;;;;1.52;0.70;;;9.10;54.20;;;;;;20487269;29;20051;-82
2022/04/02 11:55:41;;;;;;;1.10;0.70;;;9.10;54.30;;;;;;20489715;29;20042;-79
2022/04/02 12:05:42;;;;;;;2.92;0.60;;;9.10;54.30;;;;;;20490731;29;20043;-76
2022/04/02 12:15:49;;;;;;;1.70;0.80;;;9.10;54.40;;;;;;20490956;29;20067;-75
2022/04/02 12:26:00;;;;;;;0.83;0.63;;;9.10;54.40;;;;;;20489650;28;20035;-75
2022/04/02 12:36:09;;;;;;;2.33;0.45;;;9.10;54.50;;;;;;20508093;29;20035;-83
2022/04/02 12:46:21;;;;;;;1.98;0.57;;;9.10;54.60;;;;;;20490352;29;20035;-83
2022/04/02 12:56:28;;;;;;;0.70;0.40;;;9.10;54.60;;;;;;20476894;29;20043;-84
2022/04/02 13:06:32;;;;;;;2.33;0.68;;;9.10;54.60;;;;;;20489747;29;20079;-84
2022/04/02 13:16:35;;;;;;;4.78;1.15;;;9.20;54.60;;;;;;20489893;28;20070;-83
2022/04/02 13:26:35;;;;;;;1.80;0.82;;;9.20;54.70;;;;;;20471632;29;20039;-79
2022/04/02 13:37:04;;;;;;;3.67;1.00;;;9.20;54.40;;;;;;20489253;28;20074;-77
2022/04/02 13:47:09;;;;;;;5.22;1.67;;;9.20;54.30;;;;;;20520354;29;20113;-81
2022/04/02 13:57:12;;;;;;;31.02;5.10;;;9.20;54.30;;;;;;20503243;29;20047;-78
2022/04/02 14:07:13;;;;;;;29.40;5.18;;;9.30;54.40;;;;;;20503777;29;20047;-80
2022/04/02 14:17:15;;;;;;;19.42;5.72;;;9.40;54.80;;;;;;20502971;28;20066;-82
2022/04/02 14:27:43;;;;;;;18.63;3.53;;;9.60;55.20;;;;;;20502932;29;20070;-82
2022/04/02 14:38:14;;;;;;;5.22;1.27;;;9.70;54.50;;;;;;20482065;29;20557;-82
2022/04/02 14:48:34;;;;;;;2.20;1.00;;;9.10;48.60;;;;;;20500454;28;20043;-84
2022/04/02 14:58:46;;;;;;;3.38;0.80;;;9.20;49.00;;;;;;20510991;29;20050;-81
2022/04/02 15:09:27;;;;;;;1.45;0.77;;;9.40;50.00;;;;;;20492954;28;20031;-82
2022/04/02 15:19:28;;;;;;;0.93;0.50;;;9.60;50.70;;;;;;20415010;29;20047;-81
2022/04/02 15:29:42;;;;;;;0.57;0.50;;;9.60;50.90;;;;;;20485189;29;20409;-79
2022/04/02 15:39:44;;;;;;;0.77;0.40;;;9.80;51.30;;;;;;20475250;29;20405;-79
2022/04/02 15:49:44;;;;;;;1.02;0.28;;;9.90;51.30;;;;;;20488457;28;20038;-81
2022/04/02 15:59:48;;;;;;;1.10;0.60;;;10.00;51.40;;;;;;20490480;28;20466;-80
2022/04/02 16:10:04;;;;;;;1.05;0.40;;;10.00;51.40;;;;;;20488611;29;20035;-79
2022/04/02 16:20:11;;;;;;;0.98;0.50;;;10.00;51.30;;;;;;20486206;28;20062;-80
2022/04/02 16:30:13;;;;;;;1.27;0.68;;;9.90;51.30;;;;;;20502228;28;20082;-76
2022/04/02 16:40:15;;;;;;;1.25;0.57;;;9.80;51.50;;;;;;20515939;28;20036;-76
2022/04/02 16:50:16;;;;;;;0.68;0.30;;;9.70;51.70;;;;;;20499675;28;20035;-74
2022/04/02 17:00:17;;;;;;;0.75;0.38;;;9.70;52.00;;;;;;20478390;29;20050;-79
2022/04/02 17:10:21;;;;;;;0.77;0.47;;;9.60;52.20;;;;;;20477597;29;20067;-74
2022/04/02 17:20:26;;;;;;;1.33;0.43;;;9.60;52.30;;;;;;20494990;28;20039;-74
2022/04/02 17:30:28;;;;;;;1.08;0.35;;;9.50;52.40;;;;;;20494673;29;20441;-77
2022/04/02 17:40:31;;;;;;;2.05;0.63;;;9.50;52.50;;;;;;20464430;29;20047;-76
2022/04/02 17:50:32;;;;;;;1.20;0.70;;;9.50;52.70;;;;;;20495837;29;20053;-77
2022/04/02 18:00:36;;;;;;;0.88;0.50;;;9.50;52.90;;;;;;20478871;29;20498;-77
2022/04/02 18:10:37;;;;;;;2.08;0.70;;;9.40;53.00;;;;;;20479758;29;20063;-77
2022/04/02 18:20:39;;;;;;;1.13;0.50;;;9.40;53.00;;;;;;20478127;29;20043;-76
2022/04/02 18:30:40;;;;;;;2.40;0.77;;;9.40;53.10;;;;;;20504518;28;20294;-75
2022/04/02 18:40:41;;;;;;;1.50;0.82;;;9.40;53.10;;;;;;20505157;29;20131;-76
2022/04/02 18:50:41;;;;;;;1.98;0.82;;;9.40;53.20;;;;;;20507102;28;20039;-76
2022/04/02 19:00:43;;;;;;;1.48;0.55;;;9.30;53.10;;;;;;20490258;29;20047;-75
2022/04/02 19:10:43;;;;;;;0.65;0.50;;;9.40;53.20;;;;;;20505983;29;20035;-74
2022/04/02 19:20:45;;;;;;;7.33;1.10;;;9.30;53.10;;;;;;20504729;29;20401;-76
2022/04/02 19:30:46;;;;;;;4.70;1.38;;;9.30;52.90;;;;;;20489455;29;20853;-76
2022/04/02 19:40:47;;;;;;;5.75;1.10;;;9.30;52.80;;;;;;20487164;28;20470;-76
2022/04/02 19:50:50;;;;;;;0.93;0.75;;;9.30;52.80;;;;;;20488976;29;20035;-76
2022/04/02 20:00:50;;;;;;;1.48;1.00;;;9.30;52.80;;;;;;20502286;29;20566;-76
2022/04/02 20:10:51;;;;;;;1.77;1.00;;;9.30;52.80;;;;;;20469925;29;20035;-76
2022/04/02 20:20:53;;;;;;;1.75;0.88;;;9.30;52.80;;;;;;20467421;29;20256;-76
2022/04/02 20:30:54;;;;;;;1.45;0.80;;;9.20;52.60;;;;;;20480701;29;20508;-76
2022/04/02 20:40:55;;;;;;;2.08;1.00;;;9.20;52.60;;;;;;20477809;29;20154;-76
2022/04/02 20:50:56;;;;;;;1.83;1.10;;;9.20;52.50;;;;;;20480771;28;20418;-76
2022/04/02 21:00:56;;;;;;;2.22;0.90;;;9.20;52.40;;;;;;20482160;29;20138;-77
2022/04/02 21:10:57;;;;;;;1.80;0.90;;;9.20;52.40;;;;;;20466840;29;20031;-75
2022/04/02 21:20:59;;;;;;;3.03;1.30;;;9.20;52.40;;;;;;20467881;28;20039;-76
2022/04/02 21:30:59;;;;;;;1.85;0.75;;;9.20;52.30;;;;;;20497687;28;20034;-76
2022/04/02 21:41:00;;;;;;;1.70;0.90;;;9.20;52.30;;;;;;20481314;29;20406;-76
2022/04/02 21:51:01;;;;;;;3.33;0.85;;;9.20;52.30;;;;;;20465630;29;20493;-76
2022/04/02 22:01:07;;;;;;;1.50;0.70;;;9.10;52.20;;;;;;20471816;28;20050;-76
2022/04/02 22:11:08;;;;;;;2.03;0.77;;;9.20;52.20;;;;;;20512172;29;20110;-76
2022/04/02 22:21:10;;;;;;;1.77;0.82;;;9.10;52.10;;;;;;20510684;28;20134;-76
2022/04/02 22:31:10;;;;;;;2.25;1.20;;;9.10;52.00;;;;;;20478718;29;20039;-76
2022/04/02 22:41:11;;;;;;;1.92;1.10;;;9.10;52.00;;;;;;20477605;29;20509;-76
2022/04/02 22:51:12;;;;;;;1.77;0.83;;;9.10;52.00;;;;;;20493310;29;20043;-76
2022/04/02 23:01:13;;;;;;;8.40;1.55;;;9.10;52.00;;;;;;20477277;29;20295;-77
2022/04/02 23:11:14;;;;;;;3.55;1.00;;;9.10;51.90;;;;;;20475006;28;20031;-76
2022/04/02 23:21:15;;;;;;;1.25;0.93;;;9.10;51.90;;;;;;20506972;28;20585;-76
2022/04/02 23:31:15;;;;;;;3.10;1.05;;;9.00;51.80;;;;;;20474163;29;20030;-76
2022/04/02 23:41:17;;;;;;;2.60;0.85;;;9.00;51.70;;;;;;20489025;29;20306;-76
2022/04/02 23:51:18;;;;;;;2.20;1.27;;;9.00;51.70;;;;;;20472426;29;20055;-76
